Latest Weather Observations for Darwin Airport

IDD60901

Issued at 3:01 pm CST Sunday 31 July 2016 (issued every 10 minutes, with the page automatically refreshed every 10 minutes)

About weather observations | Map of Darwin area stations | Latest observations for Darwin area | Other Formats
Station Details ID: 014015 Name: DARWIN AIRPORT Lat: -12.42 Lon: 130.89 Height: 30.4 m
Data from the previous 72 hours. | See also: Recent months at Darwin Airport
Date/Time
CST
Temp
°C
App
Temp
°C
Dew
Point
°C
Rel
Hum
%
Delta-T
°C
Wind Press
QNH
hPa
Press
MSL
hPa
Rain since
9am
mm
Dir  Spd
km/h
Gust
km/h
Spd
kts
Gust
kts
31/02:30pm 30.4 27.9 14.0 36 9.9 NNW 20 28 11 15 1010.8 1010.6 0.0
31/02:00pm 31.4 28.9 16.1 39 9.6 NW 24 32 13 17 1011.0 1010.8 0.0
31/01:30pm 32.3 27.9 6.7 20 13.9 WNW 19 26 10 14 1011.3 1011.1 0.0
31/01:00pm 31.2 27.7 8.6 24 12.6 E 17 26 9 14 1011.7 1011.5 0.0
31/12:30pm 30.4 28.2 12.2 32 10.7 E 15 22 8 12 1012.3 1012.1 0.0
31/12:00pm 30.6 27.3 9.7 27 11.8 ENE 17 35 9 19 1012.9 1012.7 0.0
31/11:30am 29.6 25.4 8.3 26 11.7 ENE 20 28 11 15 1013.3 1013.1 0.0
31/11:00am 29.5 26.4 9.0 27 11.4 ENE 15 22 8 12 1013.8 1013.6 0.0
31/10:30am 28.5 26.0 14.2 41 8.6 NE 20 26 11 14 1014.1 1013.9 0.0
31/10:00am 26.9 25.2 14.8 47 7.3 ENE 17 19 9 10 1014.2 1014.0 0.0
31/09:30am 26.1 24.1 12.7 43 7.8 ENE 15 17 8 9 1014.1 1013.9 0.0
31/09:00am 23.8 20.3 8.9 38 8.0 E 17 20 9 11 1013.7 1013.5 0.0
31/08:30am 22.8 19.9 8.2 39 7.7 E 13 17 7 9 1013.5 1013.3 0.0
31/08:00am 21.6 20.3 11.1 51 5.8 ESE 9 11 5 6 1013.2 1013.0 0.0
31/07:30am 19.9 18.8 14.2 69 3.3 ESE 13 15 7 8 1012.7 1012.5 0.0
31/07:00am 19.9 19.9 17.1 84 1.7 SE 13 15 7 8 1012.4 1012.2 0.0
31/06:30am 19.9 20.4 18.3 90 1.0 SE 13 15 7 8 1012.1 1011.9 0.0
31/06:00am 19.4 20.4 18.6 95 0.5 SE 11 11 6 6 1011.9 1011.7 0.0
31/05:30am 19.4 20.7 18.4 94 0.6 SSE 9 11 5 6 1011.8 1011.6 0.0
31/05:00am 19.6 20.7 18.8 95 0.5 SSE 11 13 6 7 1011.7 1011.5 0.0
31/04:30am 20.1 21.4 19.3 95 0.5 SSE 11 13 6 7 1011.6 1011.4 0.0
31/04:00am 20.7 21.6 19.3 92 0.9 SSE 13 15 7 8 1011.5 1011.3 0.0
31/03:30am 21.1 22.9 19.5 90 1.0 SSE 9 11 5 6 1011.6 1011.4 0.0
31/03:00am 20.9 22.4 19.0 89 1.2 S 9 11 5 6 1011.5 1011.3 0.0
31/02:30am 20.2 22.3 18.9 92 0.8 SW 6 9 3 5 1011.8 1011.6 0.0
31/02:00am 21.3 24.5 19.7 91 1.0 SW 2 7 1 4 1012.0 1011.8 0.0
31/01:30am 20.7 22.7 19.1 90 1.0 SW 7 9 4 5 1012.3 1012.1 0.0
31/01:00am 21.5 22.9 19.5 88 1.3 SW 11 13 6 7 1012.6 1012.4 0.0
31/12:30am 21.2 22.8 19.1 88 1.3 SW 9 13 5 7 1012.6 1012.4 0.0
31/12:00am 21.8 23.6 19.6 87 1.4 SW 9 11 5 6 1012.8 1012.6 0.0
 
Date/Time
CST
Temp
°C
App
Temp
°C
Dew
Point
°C
Rel
Hum
%
Delta-T
°C
Wind Press
QNH
hPa
Press
MSL
hPa
Rain since
9am
mm
Dir  Spd
km/h
Gust
km/h
Spd
kts
Gust
kts
30/11:30pm 21.6 23.1 18.9 84 1.7 SW 9 11 5 6 1012.8 1012.6 0.0
30/11:00pm 22.0 24.0 19.2 84 1.8 SW 7 11 4 6 1012.9 1012.7 0.0
30/10:30pm 22.4 24.6 19.6 84 1.8 WSW 7 7 4 4 1012.9 1012.7 0.0
30/10:00pm 24.2 25.4 20.0 77 2.7 SSW 13 15 7 8 1012.9 1012.7 0.0
30/09:30pm 24.7 26.0 20.1 75 3.0 WSW 13 17 7 9 1012.9 1012.7 0.0
30/09:00pm 25.1 27.3 20.3 74 3.1 WSW 9 13 5 7 1012.6 1012.4 0.0
30/08:30pm 24.5 26.3 19.5 73 3.2 WNW 9 11 5 6 1012.2 1012.0 0.0
30/08:00pm 24.2 25.4 19.0 72 3.3 N 11 13 6 7 1011.8 1011.6 0.0
30/07:30pm 25.9 27.5 19.2 66 4.3 NNW 9 11 5 6 1011.3 1011.1 0.0
30/07:00pm 26.3 27.3 18.6 62 4.9 NNW 11 13 6 7 1011.0 1010.8 0.0
30/06:30pm 27.3 27.6 17.1 53 6.4 NNW 11 15 6 8 1010.5 1010.3 0.0
30/06:00pm 28.2 28.5 17.1 51 7.0 NNW 11 13 6 7 1010.1 1009.9 0.0
30/05:30pm 28.7 28.0 16.3 47 7.7 NNW 15 19 8 10 1009.9 1009.7 0.0
30/05:00pm 29.4 27.4 13.9 38 9.3 N 17 22 9 12 1009.7 1009.5 0.0
30/04:30pm 29.2 27.3 15.8 44 8.3 N 20 26 11 14 1009.6 1009.4 0.0
30/04:00pm 30.0 28.5 15.4 41 9.0 NNW 17 30 9 16 1009.5 1009.3 0.0
30/03:30pm 31.2 28.9 12.9 32 10.9 NW 17 24 9 13 1009.7 1009.5 0.0
30/03:00pm 31.1 28.0 14.6 36 10.1 WNW 24 28 13 15 1010.2 1010.0 0.0
30/02:30pm 32.3 29.3 7.9 22 13.5 NE 13 20 7 11 1010.6 1010.4 0.0
30/02:00pm 32.6 29.3 8.2 22 13.6 E 15 24 8 13 1011.2 1011.0 0.0
30/01:30pm 31.8 28.2 8.2 23 13.1 ENE 17 26 9 14 1011.7 1011.5 0.0
30/01:00pm 31.5 26.8 7.6 22 13.1 ESE 22 32 12 17 1012.2 1012.0 0.0
30/12:30pm 30.8 26.2 8.1 24 12.5 E 22 33 12 18 1012.8 1012.6 0.0
30/12:00pm 29.8 23.8 8.6 26 11.7 E 30 35 16 19 1013.3 1013.1 0.0
30/11:30am 29.5 23.1 8.7 27 11.5 E 32 41 17 22 1013.7 1013.5 0.0
30/11:00am 28.3 22.4 8.9 29 10.7 ESE 30 41 16 22 1014.1 1013.9 0.0
30/10:30am 27.8 22.4 9.4 31 10.2 ESE 28 33 15 18 1014.5 1014.3 0.0
30/10:00am 27.0 23.1 9.4 33 9.7 ESE 20 30 11 16 1014.5 1014.3 0.0
30/09:30am 25.1 21.3 7.5 32 9.3 ESE 17 26 9 14 1014.7 1014.5 0.0
30/09:00am 22.8 18.3 6.1 34 8.5 SE 19 26 10 14 1014.5 1014.3 0.0
30/08:30am 22.1 17.0 4.0 30 8.8 SE 20 28 11 15 1014.2 1014.0 0.0
30/08:00am 21.4 17.0 4.7 33 8.2 SE 17 22 9 12 1014.0 1013.8 0.0
30/07:30am 20.7 17.0 4.4 34 7.9 SE 13 17 7 9 1013.5 1013.3 0.0
30/07:00am 19.4 16.4 5.9 41 6.7 SE 11 13 6 7 1013.2 1013.0 0.0
30/06:30am 19.1 15.8 6.5 43 6.3 SE 13 17 7 9 1013.1 1012.9 0.0
30/06:00am 20.5 17.0 5.6 37 7.4 SE 13 17 7 9 1012.7 1012.5 0.0
30/05:30am 21.1 17.6 5.4 36 7.8 SE 13 17 7 9 1012.6 1012.4 0.0
30/05:00am 21.3 17.4 5.4 35 7.9 SE 15 19 8 10 1012.4 1012.2 0.0
30/04:30am 21.8 17.1 5.3 34 8.2 SE 19 24 10 13 1012.3 1012.1 0.0
30/04:00am 21.8 17.8 6.5 37 7.8 SE 17 20 9 11 1012.3 1012.1 0.0
30/03:30am 22.4 19.0 7.6 38 7.7 SE 15 19 8 10 1012.2 1012.0 0.0
30/03:00am 22.5 19.8 9.1 42 7.2 SSE 13 17 7 9 1012.1 1011.9 0.0
30/02:30am 23.2 20.7 9.6 42 7.4 SSE 13 15 7 8 1012.3 1012.1 0.0
30/02:00am 23.4 20.8 10.6 44 7.1 SE 15 17 8 9 1012.6 1012.4 0.0
30/01:30am 22.9 22.1 15.0 61 4.7 SSE 13 15 7 8 1012.9 1012.7 0.0
30/01:00am 21.3 22.8 18.8 86 1.6 SSE 9 11 5 6 1012.8 1012.6 0.0
30/12:30am 21.2 22.6 18.7 86 1.6 S 9 11 5 6 1013.1 1012.9 0.0
30/12:00am 21.2 23.0 18.8 86 1.5 S 7 9 4 5 1013.2 1013.0 0.0
 
Date/Time
CST
Temp
°C
App
Temp
°C
Dew
Point
°C
Rel
Hum
%
Delta-T
°C
Wind Press
QNH
hPa
Press
MSL
hPa
Rain since
9am
mm
Dir  Spd
km/h
Gust
km/h
Spd
kts
Gust
kts
29/11:30pm 21.8 23.9 19.3 86 1.6 S 7 9 4 5 1013.5 1013.3 0.0
29/11:00pm 22.1 25.5 19.4 85 1.7 CALM 0 6 0 3 1013.6 1013.4 0.0
29/10:30pm 23.0 25.8 19.7 82 2.1 W 4 6 2 3 1013.7 1013.5 0.0
29/10:00pm 23.9 26.9 19.2 75 3.0 NNW 2 7 1 4 1013.6 1013.4 0.0
29/09:30pm 24.8 26.7 19.7 73 3.3 WNW 9 9 5 5 1013.5 1013.3 0.0
29/09:00pm 25.5 27.2 19.3 68 4.0 NW 9 11 5 6 1013.0 1012.8 0.0
29/08:30pm 25.9 26.5 18.5 63 4.7 NW 13 20 7 11 1012.6 1012.4 0.0
29/08:00pm 26.1 27.1 18.6 63 4.8 NW 11 15 6 8 1012.3 1012.1 0.0
29/07:30pm 26.1 27.1 18.6 63 4.8 NW 11 13 6 7 1011.9 1011.7 0.0
29/07:00pm 26.5 27.2 18.0 59 5.4 NNW 11 15 6 8 1011.6 1011.4 0.0
29/06:30pm 27.3 27.2 17.8 56 6.0 N 15 17 8 9 1011.2 1011.0 0.0
29/06:00pm 28.6 28.1 17.0 49 7.3 N 15 19 8 10 1010.7 1010.5 0.0
29/05:30pm 28.9 27.5 16.6 47 7.7 N 19 24 10 13 1010.6 1010.4 0.0
29/05:00pm 30.4 28.3 14.7 38 9.6 NNW 19 24 10 13 1010.6 1010.4 0.0
29/04:30pm 30.7 28.6 15.3 39 9.5 NNW 20 28 11 15 1010.4 1010.2 0.0
29/04:00pm 32.7 29.6 10.3 25 12.9 E 17 30 9 16 1010.3 1010.1 0.0
29/03:30pm 32.2 28.5 10.0 25 12.7 E 20 28 11 15 1010.4 1010.2 0.0
29/03:00pm 32.2 28.0 11.1 27 12.3 SE 24 33 13 18 1010.7 1010.5 0.0
29/02:30pm 31.6 28.1 10.9 28 12.0 ESE 20 32 11 17 1011.0 1010.8 0.0
29/02:00pm 31.6 27.3 10.6 27 12.1 ESE 24 33 13 18 1011.4 1011.2 0.0
29/01:30pm 31.2 26.7 10.2 27 12.0 ESE 24 32 13 17 1011.9 1011.7 0.0
29/01:00pm 30.6 26.1 10.0 28 11.7 SE 24 33 13 18 1012.4 1012.2 0.0
29/12:30pm 30.0 25.4 11.1 31 10.9 SSE 26 41 14 22 1012.8 1012.6 0.0
29/12:00pm 29.5 26.0 10.8 31 10.7 SE 20 33 11 18 1013.5 1013.3 0.0
29/11:30am 29.5 25.3 11.0 31 10.6 SE 24 33 13 18 1013.9 1013.7 0.0
29/11:00am 27.9 22.3 10.1 33 10.0 SE 30 39 16 21 1014.3 1014.1 0.0
29/10:30am 27.6 22.9 10.6 34 9.6 SE 26 33 14 18 1014.4 1014.2 0.0
29/10:00am 26.6 21.7 11.3 38 8.7 SE 28 39 15 21 1014.7 1014.5 0.0
29/09:30am 25.3 21.4 12.0 43 7.6 SE 24 32 13 17 1014.9 1014.7 0.0
29/09:00am 23.8 20.4 11.3 45 7.0 SSE 20 26 11 14 1014.7 1014.5 0.0
29/08:30am 22.5 19.0 10.3 46 6.7 SE 19 26 10 14 1014.6 1014.4 0.0
29/08:00am 21.5 17.8 9.4 46 6.5 SE 19 24 10 13 1014.3 1014.1 0.0
29/07:30am 20.8 17.3 8.6 45 6.4 SE 17 22 9 12 1014.1 1013.9 0.0
29/07:00am 20.6 16.9 8.1 44 6.5 SE 17 20 9 11 1014.0 1013.8 0.0
29/06:30am 20.8 17.5 7.9 43 6.7 SE 15 17 8 9 1013.7 1013.5 0.0
29/06:00am 21.2 17.4 7.4 41 7.1 SE 17 20 9 11 1013.4 1013.2 0.0
29/05:30am 21.1 17.7 7.6 41 7.0 SE 15 17 8 9 1013.2 1013.0 0.0
29/05:00am 21.4 18.4 7.5 40 7.2 SE 13 17 7 9 1013.3 1013.1 0.0
29/04:30am 21.8 18.7 7.3 39 7.5 SE 13 17 7 9 1013.4 1013.2 0.0
29/04:00am 22.2 18.7 7.3 38 7.7 ESE 15 19 8 10 1013.4 1013.2 0.0
29/03:30am 22.6 18.7 7.1 36 8.0 SE 17 24 9 13 1013.5 1013.3 0.0
29/03:00am 23.1 19.1 6.5 34 8.5 ESE 17 20 9 11 1013.8 1013.6 0.0
29/02:30am 22.7 18.7 6.7 35 8.2 ESE 17 20 9 11 1013.9 1013.7 0.0
29/02:00am 22.6 19.0 6.9 36 8.1 ESE 15 19 8 10 1013.9 1013.7 0.0
29/01:30am 22.5 18.6 7.3 37 7.9 SE 17 22 9 12 1014.1 1013.9 0.0
29/01:00am 22.6 18.9 7.9 39 7.7 SE 17 22 9 12 1014.3 1014.1 0.0
29/12:30am 23.0 20.3 8.8 40 7.6 SE 13 17 7 9 1014.4 1014.2 0.0
29/12:00am 23.3 20.7 9.5 41 7.5 SSE 13 15 7 8 1014.5 1014.3 0.0
 
Date/Time
CST
Temp
°C
App
Temp
°C
Dew
Point
°C
Rel
Hum
%
Delta-T
°C
Wind Press
QNH
hPa
Press
MSL
hPa
Rain since
9am
mm
Dir  Spd
km/h
Gust
km/h
Spd
kts
Gust
kts
28/11:30pm 23.5 21.2 10.5 43 7.2 SSE 13 17 7 9 1014.8 1014.6 0.0
28/11:00pm 23.6 22.4 13.9 54 5.7 SSE 13 15 7 8 1014.7 1014.5 0.0
28/10:30pm 21.5 22.1 16.9 75 2.8 S 9 11 5 6 1014.6 1014.4 0.0
28/10:00pm 21.6 23.9 16.8 74 2.9 CALM 0 7 0 4 1014.6 1014.4 0.0
28/09:30pm 21.1 22.9 16.5 75 2.8 N 2 7 1 4 1014.5 1014.3 0.0
28/09:00pm 21.7 22.2 16.6 73 3.1 N 9 9 5 5 1014.1 1013.9 0.0
28/08:30pm 22.2 23.2 16.8 71 3.3 N 7 9 4 5 1013.8 1013.6 0.0
28/08:00pm 23.4 24.0 16.7 66 4.1 NNW 9 11 5 6 1013.4 1013.2 0.0
28/07:30pm 24.7 25.7 16.8 61 4.9 N 7 9 4 5 1013.0 1012.8 0.0
28/07:00pm 25.7 25.7 16.3 56 5.8 N 11 15 6 8 1012.6 1012.4 0.0
28/06:30pm 26.9 25.8 15.4 49 7.0 N 15 19 8 10 1012.2 1012.0 0.0
28/06:00pm 28.3 26.6 13.7 40 8.7 N 15 19 8 10 1011.8 1011.6 0.0
28/05:30pm 29.7 27.4 13.0 35 9.9 N 17 19 9 10 1011.4 1011.2 0.0
28/05:00pm 31.3 27.6 6.4 21 13.4 N 15 22 8 12 1011.1 1010.9 0.0
28/04:30pm 31.6 28.3 6.6 21 13.5 ESE 13 26 7 14 1011.1 1010.9 0.0
28/04:00pm 31.3 26.9 6.4 21 13.4 E 19 32 10 17 1011.0 1010.8 0.0
28/03:30pm 30.8 26.4 5.0 19 13.5 SE 17 28 9 15 1011.4 1011.2 0.0

Latest Capital City Observations: Canberra | Sydney | Melbourne | Brisbane | Adelaide | Perth | Hobart | Darwin

Other Formats:

Comma delimited format used in spreadsheet applications
http://www.bom.gov.au/fwo/IDD60901/IDD60901.94120.axf

JavaScript Object Notation format (JSON) in row-major order
http://www.bom.gov.au/fwo/IDD60901/IDD60901.94120.json